Time;durP1;ratioP1;P1;durP2;ratioP2;P2;SDS_P1;SDS_P2;PMS_P1;PMS_P2;Temp;Humidity;BMP_temperature;BMP_pressure;BME280_temperature;BME280_humidity;BME280_pressure;Samples;Min_cycle;Max_cycle;Signal;HPM_P1;HPM_P2
2023/01/06 00:01:27;;;;;;;;;;;;;;;18.84;67.68;100808.41;7405490;19;1800;-49
2023/01/06 00:03:57;;;;;;;;;;;;;;;18.95;67.27;100812.84;7406265;19;1881;-48
2023/01/06 00:06:26;;;;;;;;;;;;;;;18.67;67.69;100825.91;7406066;19;1830;-49
2023/01/06 00:08:54;;;;;;;;;;;;;;;18.29;68.83;100806.78;7403107;19;1850;-49
2023/01/06 00:11:23;;;;;;;;;;;;;;;18.01;69.51;100813.59;7405671;19;1974;-48
2023/01/06 00:13:51;;;;;;;;;;;;;;;17.83;69.57;100821.34;7405934;19;1638;-49
2023/01/06 00:16:22;;;;;;;;;;;;;;;17.66;70.24;100828.00;7405422;19;1943;-49
2023/01/06 00:18:55;;;;;;;;;;;;;;;17.59;70.34;100823.31;7405956;19;1975;-49
2023/01/06 00:21:23;;;;;;;;;;;;;;;17.54;70.65;100841.53;7405414;19;1741;-49
2023/01/06 00:23:52;;;;;;;;;;;;;;;17.48;70.70;100848.22;7405605;19;1806;-49
2023/01/06 00:26:20;;;;;;;;;;;;;;;17.41;70.49;100836.34;7405352;19;1807;-49
2023/01/06 00:28:48;;;;;;;;;;;;;;;17.37;70.80;100857.13;7402436;19;1850;-49
2023/01/06 00:31:18;;;;;;;;;;;;;;;17.32;70.49;100859.31;7403327;19;1890;-49
2023/01/06 00:33:46;;;;;;;;;;;;;;;17.28;70.61;100845.31;7404666;19;1795;-49
2023/01/06 00:36:17;;;;;;;;;;;;;;;17.26;71.20;100865.97;7405747;19;1769;-49
2023/01/06 00:38:45;;;;;;;;;;;;;;;17.24;71.27;100867.94;7405348;19;1627;-49
2023/01/06 00:43:55;;;;;;;;;;;;;;;17.20;70.91;100876.31;7401590;19;2544;-49
2023/01/06 00:46:27;;;;;;;;;;;;;;;17.16;71.12;100873.03;7404582;19;2035;-49
2023/01/06 00:48:55;;;;;;;;;;;;;;;17.59;70.81;100866.94;7402750;19;1861;-49
2023/01/06 00:51:26;;;;;;;;;;;;;;;18.01;69.21;100871.63;7404168;19;1978;-49
2023/01/06 00:53:55;;;;;;;;;;;;;;;18.28;68.98;100881.84;7403423;19;1858;-49
2023/01/06 00:56:23;;;;;;;;;;;;;;;18.45;68.34;100877.78;7404762;19;1622;-48
2023/01/06 00:58:51;;;;;;;;;;;;;;;18.62;67.78;100873.66;7404356;19;1970;-49
2023/01/06 01:01:20;;;;;;;;;;;;;;;18.66;67.72;100884.00;7403693;19;1830;-49
2023/01/06 01:03:48;;;;;;;;;;;;;;;18.59;67.42;100877.47;7403280;19;1748;-49
2023/01/06 01:06:17;;;;;;;;;;;;;;;18.33;68.10;100881.50;7402665;19;1980;-49
2023/01/06 01:08:48;;;;;;;;;;;;;;;18.02;68.75;100884.03;7401765;19;1852;-49
2023/01/06 01:12:08;;;;;;;;;;;;;;;17.81;69.32;100876.75;7404387;19;1809;-49
2023/01/06 01:14:04;;;;;;;;;;;;;;;17.62;69.76;100885.41;7399746;19;1980;-49
2023/01/06 01:16:33;;;;;;;;;;;;;;;17.52;69.97;100896.97;7402880;19;1963;-49
2023/01/06 01:19:02;;;;;;;;;;;;;;;17.46;70.12;100893.81;7403688;19;2120;-49
2023/01/06 01:21:30;;;;;;;;;;;;;;;17.39;70.54;100884.59;7403988;19;1698;-49
2023/01/06 01:24:01;;;;;;;;;;;;;;;17.34;70.22;100894.78;7403305;19;1758;-49
2023/01/06 01:26:29;;;;;;;;;;;;;;;17.27;70.76;100899.78;7404400;19;1120;-49
2023/01/06 01:28:57;;;;;;;;;;;;;;;17.24;70.51;100901.84;7400622;19;1863;-49
2023/01/06 01:31:26;;;;;;;;;;;;;;;17.23;70.79;100910.81;7402896;19;1536;-49
2023/01/06 01:33:54;;;;;;;;;;;;;;;17.18;70.71;100895.13;7403960;19;1839;-49
2023/01/06 01:36:22;;;;;;;;;;;;;;;17.15;70.83;100905.22;7403399;19;1797;-49
2023/01/06 01:38:51;;;;;;;;;;;;;;;17.48;70.65;100904.38;7403118;19;1738;-49
2023/01/06 01:41:24;;;;;;;;;;;;;;;17.91;69.25;100898.28;7402595;19;1120;-49
2023/01/06 01:43:53;;;;;;;;;;;;;;;18.21;68.42;100900.25;7401485;19;2097;-49
2023/01/06 01:46:23;;;;;;;;;;;;;;;18.37;68.21;100891.81;7401933;19;1987;-49
2023/01/06 01:48:52;;;;;;;;;;;;;;;18.56;67.91;100891.13;7403022;19;1966;-49
2023/01/06 01:51:23;;;;;;;;;;;;;;;18.67;67.32;100907.13;7402995;19;1856;-49
2023/01/06 01:53:53;;;;;;;;;;;;;;;18.73;67.19;100889.69;7402571;19;1722;-49
2023/01/06 01:56:34;;;;;;;;;;;;;;;18.51;67.69;100895.16;7404015;19;1639;-49
2023/01/06 01:59:06;;;;;;;;;;;;;;;18.16;68.54;100917.69;7401701;19;2066;-49
2023/01/06 02:01:35;;;;;;;;;;;;;;;17.82;68.80;100907.88;7401836;19;1756;-49
2023/01/06 02:04:04;;;;;;;;;;;;;;;17.67;69.70;100919.81;7402091;19;2016;-49
2023/01/06 02:06:32;;;;;;;;;;;;;;;17.53;69.89;100920.03;7402879;19;1795;-49
2023/01/06 02:09:03;;;;;;;;;;;;;;;17.46;69.69;100914.34;7400903;19;2006;-49
2023/01/06 02:11:35;;;;;;;;;;;;;;;17.38;70.04;100922.97;7403117;19;1774;-49
2023/01/06 02:14:10;;;;;;;;;;;;;;;17.33;70.10;100917.16;7400611;19;1852;-49
2023/01/06 02:16:42;;;;;;;;;;;;;;;17.27;70.19;100914.97;7401846;19;1887;-49
2023/01/06 02:19:18;;;;;;;;;;;;;;;17.22;70.05;100928.66;7402226;19;1670;-49
2023/01/06 02:22:00;;;;;;;;;;;;;;;17.20;70.55;100913.72;7402017;19;1946;-49
2023/01/06 02:24:44;;;;;;;;;;;;;;;17.19;70.32;100925.38;7402477;19;1696;-49
2023/01/06 02:27:30;;;;;;;;;;;;;;;17.19;70.54;100926.25;7401743;19;1697;-49
2023/01/06 02:30:23;;;;;;;;;;;;;;;17.75;69.45;100945.97;7400477;19;1980;-49
2023/01/06 02:33:02;;;;;;;;;;;;;;;18.07;68.37;100938.88;7401426;19;2066;-49
2023/01/06 02:35:45;;;;;;;;;;;;;;;18.29;68.02;100939.78;7401261;19;1802;-49
2023/01/06 02:38:21;;;;;;;;;;;;;;;18.48;67.46;100936.41;7400661;19;1992;-49
2023/01/06 02:40:54;;;;;;;;;;;;;;;18.55;67.23;100940.28;7400558;19;1723;-49
2023/01/06 02:43:28;;;;;;;;;;;;;;;18.61;67.05;100929.06;7401101;19;1643;-49
2023/01/06 02:46:01;;;;;;;;;;;;;;;18.55;67.14;100952.84;7400554;19;1679;-49
2023/01/06 02:48:40;;;;;;;;;;;;;;;18.16;67.87;100945.28;7401472;19;1865;-49
2023/01/06 02:51:11;;;;;;;;;;;;;;;17.85;68.54;100942.44;7402191;19;1986;-49
2023/01/06 02:53:43;;;;;;;;;;;;;;;17.65;69.04;100956.53;7400042;19;1509;-49
2023/01/06 02:56:11;;;;;;;;;;;;;;;17.50;69.29;100943.38;7402132;19;1658;-49
2023/01/06 02:58:44;;;;;;;;;;;;;;;17.44;69.68;100957.22;7400593;19;2021;-49
2023/01/06 03:01:14;;;;;;;;;;;;;;;17.38;69.86;100970.25;7397966;19;2307;-48
2023/01/06 03:03:49;;;;;;;;;;;;;;;17.30;70.15;100961.00;7398147;19;1730;-49
2023/01/06 03:06:20;;;;;;;;;;;;;;;17.25;69.79;100954.31;7400570;19;2112;-49
2023/01/06 03:08:50;;;;;;;;;;;;;;;17.24;69.86;100963.31;7399070;19;1855;-49
2023/01/06 03:11:18;;;;;;;;;;;;;;;17.18;69.89;100963.78;7400744;19;1640;-49
2023/01/06 03:13:50;;;;;;;;;;;;;;;17.15;70.23;100977.34;7399187;19;1757;-49
2023/01/06 03:16:18;;;;;;;;;;;;;;;17.10;70.30;100962.53;7399894;19;1963;-49
2023/01/06 03:18:52;;;;;;;;;;;;;;;17.09;70.28;100955.50;7400296;19;1808;-48
2023/01/06 03:21:23;;;;;;;;;;;;;;;17.05;70.57;100964.72;7399301;19;1775;-49
2023/01/06 03:23:51;;;;;;;;;;;;;;;17.03;70.67;100960.44;7399634;19;1966;-49
2023/01/06 03:26:19;;;;;;;;;;;;;;;17.01;70.48;100973.94;7400419;19;1823;-49
2023/01/06 03:28:47;;;;;;;;;;;;;;;17.37;69.69;100964.06;7398467;19;1883;-49
2023/01/06 03:31:20;;;;;;;;;;;;;;;17.85;68.81;100958.50;7399987;19;1772;-49
2023/01/06 03:33:55;;;;;;;;;;;;;;;18.19;67.70;100965.63;7399074;19;1648;-49
2023/01/06 03:36:29;;;;;;;;;;;;;;;18.40;67.58;100958.50;7399066;19;1781;-49
2023/01/06 03:39:00;;;;;;;;;;;;;;;18.60;67.09;100964.88;7398979;19;1972;-49
2023/01/06 03:43:10;;;;;;;;;;;;;;;18.73;66.42;100966.53;7400481;19;1804;-49
2023/01/06 03:44:25;;;;;;;;;;;;;;;18.77;65.98;100974.16;7398989;19;1650;-49
2023/01/06 03:46:56;;;;;;;;;;;;;;;18.43;67.11;100970.78;7399350;19;2117;-49
2023/01/06 03:49:31;;;;;;;;;;;;;;;18.05;67.66;100997.00;7398677;19;1975;-49
2023/01/06 03:52:03;;;;;;;;;;;;;;;17.76;68.61;100980.56;7397894;19;1735;-49
2023/01/06 03:54:37;;;;;;;;;;;;;;;17.55;68.72;101003.66;7398337;19;1963;-49
2023/01/06 03:57:08;;;;;;;;;;;;;;;17.46;69.29;101011.44;7399718;19;1965;-49
2023/01/06 03:59:39;;;;;;;;;;;;;;;17.37;69.38;100998.81;7398627;19;1705;-49
2023/01/06 04:02:07;;;;;;;;;;;;;;;17.30;69.63;100995.75;7398745;19;1984;-48
2023/01/06 04:04:38;;;;;;;;;;;;;;;17.23;69.76;100989.19;7399154;19;2014;-49
2023/01/06 04:07:06;;;;;;;;;;;;;;;17.19;69.70;101014.44;7405576;19;1943;-49
2023/01/06 04:09:35;;;;;;;;;;;;;;;17.17;69.90;101010.16;7403952;19;1846;-49
2023/01/06 04:14:44;;;;;;;;;;;;;;;17.08;70.06;100990.34;7406797;19;1698;-49
2023/01/06 04:17:12;;;;;;;;;;;;;;;17.06;70.10;101003.81;7405388;19;1783;-49
2023/01/06 04:19:43;;;;;;;;;;;;;;;17.01;70.05;101006.00;7405386;19;1829;-49
2023/01/06 04:22:11;;;;;;;;;;;;;;;16.99;69.94;101010.63;7406023;19;1977;-49
2023/01/06 04:24:39;;;;;;;;;;;;;;;16.96;70.34;101008.16;7405541;19;2411;-49
2023/01/06 04:27:07;;;;;;;;;;;;;;;17.04;70.40;101000.41;7404928;19;1786;-49
2023/01/06 04:29:36;;;;;;;;;;;;;;;17.56;69.33;100984.00;7403687;19;2072;-49
2023/01/06 04:32:04;;;;;;;;;;;;;;;17.84;68.17;100974.66;7405040;19;1986;-49
2023/01/06 04:34:33;;;;;;;;;;;;;;;18.23;67.63;100999.19;7405691;19;1952;-49
2023/01/06 04:37:03;;;;;;;;;;;;;;;18.40;67.43;100993.31;7405099;19;1961;-49
2023/01/06 04:39:32;;;;;;;;;;;;;;;18.56;66.51;101000.94;7404450;19;1796;-49
2023/01/06 04:42:00;;;;;;;;;;;;;;;18.60;66.56;101018.44;7405531;19;1802;-49
2023/01/06 04:44:28;;;;;;;;;;;;;;;18.66;66.20;101006.34;7405272;19;1959;-49
2023/01/06 04:46:57;;;;;;;;;;;;;;;18.38;66.95;101018.50;7404210;19;1726;-49
2023/01/06 04:49:25;;;;;;;;;;;;;;;18.03;67.60;101038.25;7404155;19;2007;-49
2023/01/06 04:51:53;;;;;;;;;;;;;;;17.71;68.44;101055.00;7404103;19;1809;-49
2023/01/06 04:54:24;;;;;;;;;;;;;;;17.53;68.81;101048.38;7404019;19;1652;-49
2023/01/06 04:56:53;;;;;;;;;;;;;;;17.41;69.27;101064.44;7405247;19;1728;-49
2023/01/06 04:59:21;;;;;;;;;;;;;;;17.31;69.00;101055.41;7404219;19;1731;-49
2023/01/06 05:01:49;;;;;;;;;;;;;;;17.27;69.13;101043.25;7403512;19;1793;-49
2023/01/06 05:04:18;;;;;;;;;;;;;;;17.19;69.43;101057.19;7403647;19;1936;-49
2023/01/06 05:06:46;;;;;;;;;;;;;;;17.15;69.63;101052.19;7403304;19;1986;-49
2023/01/06 05:09:15;;;;;;;;;;;;;;;17.09;69.74;101073.06;7401466;19;2092;-49
2023/01/06 05:11:46;;;;;;;;;;;;;;;17.07;70.01;101068.81;7403821;19;1746;-49
2023/01/06 05:14:14;;;;;;;;;;;;;;;17.08;70.00;101062.50;7403971;19;1778;-49
2023/01/06 05:16:43;;;;;;;;;;;;;;;17.29;69.78;101065.38;7403583;19;1813;-49
2023/01/06 05:19:11;;;;;;;;;;;;;;;17.83;68.43;101046.03;7401444;19;1792;-45
2023/01/06 05:21:39;;;;;;;;;;;;;;;18.04;68.60;101056.00;7402981;19;1968;-45
2023/01/06 05:24:08;;;;;;;;;;;;;;;18.26;67.54;101053.34;7402444;19;1723;-45
2023/01/06 05:26:36;;;;;;;;;;;;;;;18.42;67.35;101073.50;7403671;19;1797;-45
2023/01/06 05:29:07;;;;;;;;;;;;;;;18.56;67.20;101062.53;7400713;19;1876;-45
2023/01/06 05:31:35;;;;;;;;;;;;;;;18.60;67.15;101061.31;7400498;19;1856;-45
2023/01/06 05:34:03;;;;;;;;;;;;;;;18.67;66.92;101072.34;7401778;19;1853;-45
2023/01/06 05:36:31;;;;;;;;;;;;;;;18.79;67.07;101062.44;7346698;19;14051;-45
2023/01/06 05:39:00;;;;;;;;;;;;;;;18.76;66.86;101058.22;7402206;19;1798;-45
2023/01/06 05:41:28;;;;;;;;;;;;;;;18.75;66.94;101061.84;7402391;19;1613;-45
2023/01/06 05:43:56;;;;;;;;;;;;;;;18.77;66.87;101059.91;7401296;19;1884;-45
2023/01/06 05:46:27;;;;;;;;;;;;;;;18.56;67.55;101067.88;7402615;19;1770;-44
2023/01/06 05:48:57;;;;;;;;;;;;;;;18.28;67.98;101062.09;7398083;19;1894;-44
2023/01/06 05:51:26;;;;;;;;;;;;;;;17.96;67.90;101055.75;7400679;19;1859;-45
2023/01/06 05:53:54;;;;;;;;;;;;;;;17.86;68.39;101067.19;7398295;19;1792;-45
2023/01/06 05:56:23;;;;;;;;;;;;;;;17.72;68.58;101085.28;7404057;19;1037;-45
2023/01/06 05:58:52;;;;;;;;;;;;;;;17.62;68.72;101096.66;7401112;19;2080;-44
2023/01/06 06:01:21;;;;;;;;;;;;;;;17.42;68.88;101100.88;7400712;19;1840;-44
2023/01/06 06:03:53;;;;;;;;;;;;;;;17.37;69.02;101108.41;7401948;19;1763;-44
2023/01/06 06:06:22;;;;;;;;;;;;;;;17.22;66.84;101098.88;7402913;19;1660;-44
2023/01/06 06:08:50;;;;;;;;;;;;;;;17.08;66.50;101087.38;7402663;19;1860;-44
2023/01/06 06:11:21;;;;;;;;;;;;;;;17.04;67.00;101099.28;7400520;19;1875;-44
2023/01/06 06:13:49;;;;;;;;;;;;;;;17.08;66.92;101102.56;7400054;19;1647;-44
2023/01/06 06:16:18;;;;;;;;;;;;;;;17.19;67.41;101104.44;7399750;19;1771;-43
2023/01/06 06:18:50;;;;;;;;;;;;;;;18.03;65.15;101081.91;7402264;19;1990;-43
2023/01/06 06:21:21;;;;;;;;;;;;;;;18.46;64.31;101082.97;7402019;19;1870;-43
2023/01/06 06:23:50;;;;;;;;;;;;;;;18.85;63.20;101078.06;7397794;19;2970;-46
2023/01/06 06:26:18;;;;;;;;;;;;;;;18.84;62.16;101104.00;7402891;19;1341;-46
2023/01/06 06:28:46;;;;;;;;;;;;;;;18.96;61.43;101094.09;7399140;19;1668;-46
2023/01/06 06:31:16;;;;;;;;;;;;;;;19.04;61.08;101117.59;7399273;19;1912;-47
2023/01/06 06:33:44;;;;;;;;;;;;;;;19.21;60.99;101103.59;7400791;19;1829;-47
2023/01/06 06:36:14;;;;;;;;;;;;;;;19.16;61.42;101115.69;7401361;19;1699;-47
2023/01/06 06:38:46;;;;;;;;;;;;;;;18.56;62.69;101112.53;7400191;19;1811;-47
2023/01/06 06:41:14;;;;;;;;;;;;;;;18.11;63.30;101124.13;7401883;19;1741;-47
2023/01/06 06:43:43;;;;;;;;;;;;;;;17.92;64.25;101134.56;7400299;19;2168;-46
2023/01/06 06:46:11;;;;;;;;;;;;;;;17.85;64.76;101129.69;7400778;19;1812;-47
2023/01/06 06:48:40;;;;;;;;;;;;;;;17.70;65.74;101136.19;7399977;19;1712;-44
2023/01/06 06:51:09;;;;;;;;;;;;;;;17.68;66.13;101144.34;7399118;19;1869;-45
2023/01/06 06:53:38;;;;;;;;;;;;;;;17.66;65.58;101162.31;7400130;19;1974;-45
2023/01/06 06:56:09;;;;;;;;;;;;;;;17.59;65.97;101160.25;7401297;19;1441;-45
2023/01/06 06:58:38;;;;;;;;;;;;;;;17.56;66.05;101173.84;7396770;19;1851;-44
2023/01/06 07:01:07;;;;;;;;;;;;;;;17.57;66.32;101172.91;7398310;19;1861;-44
2023/01/06 07:03:35;;;;;;;;;;;;;;;17.62;66.19;101168.88;7388350;19;1918;-45
2023/01/06 07:06:04;;;;;;;;;;;;;;;17.53;66.79;101176.72;7392816;19;1625;-44
2023/01/06 07:08:33;;;;;;;;;;;;;;;18.28;65.01;101163.81;7396329;19;1935;-45
2023/01/06 07:11:02;;;;;;;;;;;;;;;18.60;64.48;101164.88;7394693;19;1864;-45
2023/01/06 07:13:32;;;;;;;;;;;;;;;18.84;64.36;101160.28;7396253;19;1861;-45
2023/01/06 07:16:01;;;;;;;;;;;;;;;18.97;63.91;101175.34;7395854;19;1729;-45
2023/01/06 07:18:29;;;;;;;;;;;;;;;19.22;63.70;101171.50;7394226;19;1863;-45
2023/01/06 07:20:58;;;;;;;;;;;;;;;19.26;63.72;101165.75;7393547;19;2080;-45
2023/01/06 07:23:26;;;;;;;;;;;;;;;19.34;63.23;101173.16;7393657;19;1922;-42
2023/01/06 07:25:55;;;;;;;;;;;;;;;19.24;63.16;101177.59;7394845;19;1831;-42
2023/01/06 07:28:24;;;;;;;;;;;;;;;19.42;63.50;101181.41;7396858;19;1676;-41
2023/01/06 07:30:55;;;;;;;;;;;;;;;19.32;63.47;101175.13;7395281;19;1975;-41
2023/01/06 07:33:23;;;;;;;;;;;;;;;19.14;63.34;101176.63;7397933;19;1802;-41
2023/01/06 07:35:54;;;;;;;;;;;;;;;19.03;63.64;101188.25;7397820;19;1784;-41
2023/01/06 07:38:22;;;;;;;;;;;;;;;18.96;63.48;101174.50;7397703;19;1664;-41
2023/01/06 07:40:51;;;;;;;;;;;;;;;19.04;63.35;101177.41;7405886;19;2022;-41
2023/01/06 07:43:19;;;;;;;;;;;;;;;19.08;63.30;101186.91;7406416;19;1693;-41
2023/01/06 07:45:49;;;;;;;;;;;;;;;19.18;63.16;101189.69;7405791;19;1794;-42
2023/01/06 07:48:19;;;;;;;;;;;;;;;19.17;62.93;101181.75;7406280;19;1916;-41
2023/01/06 07:50:48;;;;;;;;;;;;;;;19.21;63.03;101178.69;7405218;19;1871;-42
2023/01/06 07:53:16;;;;;;;;;;;;;;;19.22;63.30;101187.59;7404961;19;2013;-42
2023/01/06 07:55:44;;;;;;;;;;;;;;;19.31;63.04;101200.22;7404067;19;1622;-41
2023/01/06 07:58:13;;;;;;;;;;;;;;;19.44;62.84;101183.97;7404002;19;1783;-41
2023/01/06 08:00:41;;;;;;;;;;;;;;;19.40;63.05;101204.00;7405185;19;1805;-42
2023/01/06 08:03:11;;;;;;;;;;;;;;;19.55;62.56;101204.53;7406557;19;1791;-42
2023/01/06 08:05:43;;;;;;;;;;;;;;;19.20;63.40;101192.19;7408524;19;1592;-42
2023/01/06 08:08:11;;;;;;;;;;;;;;;18.94;63.92;101194.34;7406226;19;2021;-42
2023/01/06 08:10:41;;;;;;;;;;;;;;;18.65;64.57;101195.69;7405481;19;2075;-42
2023/01/06 08:13:09;;;;;;;;;;;;;;;18.49;64.85;101205.94;7407016;19;1920;-42
2023/01/06 08:15:37;;;;;;;;;;;;;;;18.46;65.25;101198.13;7406172;19;1684;-42
2023/01/06 08:18:06;;;;;;;;;;;;;;;18.37;65.50;101207.75;7404164;19;1710;-42
2023/01/06 08:20:35;;;;;;;;;;;;;;;18.33;65.54;101208.97;7407285;19;1750;-42
2023/01/06 08:23:06;;;;;;;;;;;;;;;18.28;65.92;101214.69;7405965;19;2031;-42
2023/01/06 08:25:34;;;;;;;;;;;;;;;18.26;65.74;101235.38;7405729;19;1766;-42
2023/01/06 08:28:02;;;;;;;;;;;;;;;18.28;65.53;101237.91;7405222;19;1734;-42
2023/01/06 08:30:31;;;;;;;;;;;;;;;18.24;65.68;101261.41;7398123;19;1858;-42
2023/01/06 08:33:00;;;;;;;;;;;;;;;18.24;65.64;101258.72;7406032;19;1765;-42
2023/01/06 08:35:29;;;;;;;;;;;;;;;18.26;65.57;101264.81;7405859;19;1876;-42
2023/01/06 08:37:57;;;;;;;;;;;;;;;18.22;65.48;101271.38;7404327;19;2027;-42
2023/01/06 08:40:28;;;;;;;;;;;;;;;18.28;65.74;101273.59;7403169;19;1901;-42
2023/01/06 08:42:56;;;;;;;;;;;;;;;18.29;65.60;101277.94;7404504;19;1835;-42
2023/01/06 08:45:24;;;;;;;;;;;;;;;18.16;65.83;101282.53;7405233;19;1612;-42
2023/01/06 08:47:53;;;;;;;;;;;;;;;18.09;65.66;101290.19;7404057;19;2067;-41
2023/01/06 08:50:21;;;;;;;;;;;;;;;18.17;65.68;101307.50;7403476;19;1875;-42
2023/01/06 08:52:50;;;;;;;;;;;;;;;18.16;65.57;101285.22;7404173;19;1937;-42
2023/01/06 08:55:19;;;;;;;;;;;;;;;18.02;65.74;101293.44;7403200;19;3927;-42
2023/01/06 08:57:49;;;;;;;;;;;;;;;18.36;65.32;101291.72;7403824;19;2438;-42
2023/01/06 09:00:18;;;;;;;;;;;;;;;18.91;63.60;101299.97;7404304;19;1649;-42
2023/01/06 09:02:47;;;;;;;;;;;;;;;19.17;63.41;101289.00;7402302;19;2146;-41
2023/01/06 09:05:15;;;;;;;;;;;;;;;19.58;62.42;101296.34;7401142;19;2682;-42
2023/01/06 09:07:43;;;;;;;;;;;;;;;19.86;62.01;101296.78;7402038;19;2963;-42
2023/01/06 09:10:11;;;;;;;;;;;;;;;20.03;61.51;101306.06;7402156;19;2686;-41
2023/01/06 09:12:40;;;;;;;;;;;;;;;20.18;61.29;101310.16;7400235;19;1925;-41
2023/01/06 09:15:12;;;;;;;;;;;;;;;19.96;61.91;101310.28;7401171;19;1898;-41
2023/01/06 09:17:40;;;;;;;;;;;;;;;19.42;63.13;101312.00;7403800;19;2014;-41
2023/01/06 09:20:09;;;;;;;;;;;;;;;19.04;63.89;101306.06;7403215;19;2029;-41
2023/01/06 09:22:37;;;;;;;;;;;;;;;18.83;64.54;101300.56;7404152;19;1868;-41
2023/01/06 09:25:06;;;;;;;;;;;;;;;18.70;65.26;101302.47;7402908;19;1938;-41
2023/01/06 09:27:34;;;;;;;;;;;;;;;18.62;65.38;101300.41;7403731;19;1434;-42
2023/01/06 09:30:03;;;;;;;;;;;;;;;18.57;65.49;101313.31;7401563;19;1870;-42
2023/01/06 09:32:34;;;;;;;;;;;;;;;18.49;65.70;101302.34;7401236;19;2104;-41
2023/01/06 09:35:02;;;;;;;;;;;;;;;18.26;64.20;101298.75;7402559;19;2047;-41
2023/01/06 09:37:31;;;;;;;;;;;;;;;18.26;65.77;101299.63;7403186;19;1766;-41
2023/01/06 09:39:59;;;;;;;;;;;;;;;18.34;65.56;101300.84;7402464;19;1777;-41
2023/01/06 09:42:42;;;;;;;;;;;;;;;18.27;65.12;101298.63;7403579;19;1821;-42
2023/01/06 09:45:15;;;;;;;;;;;;;;;18.02;63.01;101296.97;7404903;19;1024;-42
2023/01/06 09:47:48;;;;;;;;;;;;;;;17.84;62.14;101306.38;7403207;19;2319;-42
2023/01/06 09:50:19;;;;;;;;;;;;;;;17.75;60.84;101301.72;7402769;19;2073;-42
2023/01/06 09:52:49;;;;;;;;;;;;;;;17.59;59.30;101286.78;7401370;19;2020;-42
2023/01/06 09:55:20;;;;;;;;;;;;;;;17.40;57.15;101283.75;7403880;19;1836;-42
2023/01/06 09:57:52;;;;;;;;;;;;;;;17.29;56.39;101287.22;7401232;19;1815;-42
2023/01/06 10:00:21;;;;;;;;;;;;;;;17.21;55.59;101277.09;7400782;19;1828;-42
2023/01/06 10:02:52;;;;;;;;;;;;;;;17.10;55.03;101277.00;7399774;19;2026;-42
2023/01/06 10:05:22;;;;;;;;;;;;;;;17.02;54.92;101269.53;7401188;19;2035;-41
2023/01/06 10:07:56;;;;;;;;;;;;;;;17.05;54.05;101280.00;7396685;19;2075;-41
2023/01/06 10:10:30;;;;;;;;;;;;;;;16.99;53.60;101272.44;7400814;19;1936;-41
2023/01/06 10:13:05;;;;;;;;;;;;;;;16.96;53.40;101261.13;7397301;19;1904;-42
2023/01/06 10:15:37;;;;;;;;;;;;;;;16.91;53.07;101274.81;7399437;19;1792;-42
2023/01/06 10:18:18;;;;;;;;;;;;;;;16.94;52.80;101266.56;7401837;19;1957;-42
2023/01/06 10:20:53;;;;;;;;;;;;;;;16.96;54.35;101261.13;7400573;19;2179;-42
2023/01/06 10:23:39;;;;;;;;;;;;;;;17.08;55.63;101253.06;7399477;19;1839;-41
2023/01/06 10:26:13;;;;;;;;;;;;;;;17.20;55.88;101266.50;7400719;19;1858;-41
2023/01/06 10:28:43;;;;;;;;;;;;;;;17.27;56.22;101278.47;7398946;19;2021;-41
2023/01/06 10:31:14;;;;;;;;;;;;;;;17.27;56.27;101260.59;7394349;19;1843;-42
2023/01/06 10:33:48;;;;;;;;;;;;;;;17.32;56.57;101270.94;7385746;19;1619;-42
2023/01/06 10:36:17;;;;;;;;;;;;;;;17.32;56.74;101275.44;7386841;19;1563;-41
2023/01/06 10:38:48;;;;;;;;;;;;;;;17.32;56.84;101264.75;7386492;19;1808;-42
2023/01/06 10:41:22;;;;;;;;;;;;;;;17.32;56.79;101268.28;7386051;19;2084;-42
2023/01/06 10:43:50;;;;;;;;;;;;;;;17.30;56.86;101262.19;7394859;19;1552;-42
2023/01/06 10:46:19;;;;;;;;;;;;;;;17.30;56.91;101276.41;7395173;19;1946;-41
2023/01/06 10:48:51;;;;;;;;;;;;;;;17.32;56.79;101281.63;7394574;19;1566;-42
2023/01/06 10:51:34;;;;;;;;;;;;;;;17.30;57.01;101256.84;7387879;19;1866;-41
2023/01/06 10:54:04;;;;;;;;;;;;;;;17.28;56.35;101253.44;7398273;19;1515;-41
2023/01/06 10:56:34;;;;;;;;;;;;;;;17.25;56.45;101254.50;7387981;19;1588;-42
2023/01/06 10:59:07;;;;;;;;;;;;;;;17.27;56.06;101254.41;7398103;19;1499;-41
2023/01/06 11:01:36;;;;;;;;;;;;;;;17.25;56.36;101240.31;7398266;19;1566;-41
2023/01/06 11:04:10;;;;;;;;;;;;;;;17.24;56.66;101249.28;7398170;19;1766;-41
2023/01/06 11:06:41;;;;;;;;;;;;;;;17.23;56.77;101250.22;7395124;19;1753;-42
2023/01/06 11:09:10;;;;;;;;;;;;;;;17.23;56.36;101244.88;7385915;19;1681;-42
2023/01/06 11:11:47;;;;;;;;;;;;;;;17.24;56.22;101252.78;7387331;19;1847;-42
2023/01/06 11:14:19;;;;;;;;;;;;;;;17.29;56.41;101253.31;7398767;19;1400;-41
2023/01/06 11:16:55;;;;;;;;;;;;;;;17.27;56.80;101241.03;7399151;19;1737;-41
2023/01/06 11:19:33;;;;;;;;;;;;;;;17.27;56.69;101251.75;7399361;19;1719;-41
2023/01/06 11:22:01;;;;;;;;;;;;;;;17.29;56.91;101260.50;7399128;19;1686;-41
2023/01/06 11:24:31;;;;;;;;;;;;;;;17.35;56.55;101249.34;7399693;19;1664;-41
2023/01/06 11:27:00;;;;;;;;;;;;;;;17.33;56.85;101248.63;7400741;19;1985;-42
2023/01/06 11:29:30;;;;;;;;;;;;;;;17.29;57.23;101253.31;7395180;19;2076;-42
2023/01/06 11:31:59;;;;;;;;;;;;;;;17.29;57.17;101256.00;7397063;19;2194;-42
2023/01/06 11:34:31;;;;;;;;;;;;;;;17.29;57.51;101255.16;7392803;19;1697;-42
2023/01/06 11:37:00;;;;;;;;;;;;;;;17.30;57.71;101252.34;7392488;19;2183;-42
2023/01/06 11:39:30;;;;;;;;;;;;;;;17.34;57.53;101247.63;7391564;19;1755;-42
2023/01/06 11:42:04;;;;;;;;;;;;;;;17.37;57.89;101247.41;7394700;19;2015;-42
2023/01/06 11:44:33;;;;;;;;;;;;;;;17.41;57.20;101245.38;7399523;19;1917;-43
2023/01/06 11:47:04;;;;;;;;;;;;;;;17.33;57.74;101240.59;7398519;19;2059;-42
2023/01/06 11:49:37;;;;;;;;;;;;;;;17.33;57.90;101235.25;7399207;19;1407;-42
2023/01/06 11:52:07;;;;;;;;;;;;;;;17.36;58.02;101226.97;7397922;19;1867;-42
2023/01/06 11:54:36;;;;;;;;;;;;;;;17.41;58.23;101226.66;7399688;19;1588;-42
2023/01/06 11:57:16;;;;;;;;;;;;;;;17.38;58.66;101226.88;7400453;19;1670;-42
2023/01/06 11:59:52;;;;;;;;;;;;;;;17.39;58.54;101245.47;7398700;19;2019;-42
2023/01/06 12:02:24;;;;;;;;;;;;;;;17.42;58.48;101244.41;7398708;19;1682;-42
2023/01/06 12:04:57;;;;;;;;;;;;;;;17.41;58.73;101248.06;7399769;19;2161;-42
2023/01/06 12:07:30;;;;;;;;;;;;;;;17.44;58.83;101259.34;7398754;19;1738;-42
2023/01/06 12:10:01;;;;;;;;;;;;;;;17.45;58.75;101245.03;7399650;19;1702;-42
2023/01/06 12:12:30;;;;;;;;;;;;;;;17.45;58.85;101245.03;7398839;19;1924;-42
2023/01/06 12:14:58;;;;;;;;;;;;;;;17.46;59.05;101236.03;7398750;19;1825;-42
2023/01/06 12:17:34;;;;;;;;;;;;;;;17.49;59.07;101243.84;7398540;19;1756;-42
2023/01/06 12:20:10;;;;;;;;;;;;;;;17.52;59.14;101239.22;7398888;19;1757;-42
2023/01/06 12:22:40;;;;;;;;;;;;;;;17.52;59.08;101241.91;7399099;19;2043;-42
2023/01/06 12:25:13;;;;;;;;;;;;;;;17.57;59.45;101243.25;7399093;19;1740;-42
2023/01/06 12:27:44;;;;;;;;;;;;;;;17.61;59.69;101243.91;7406019;19;1513;-43
2023/01/06 12:30:17;;;;;;;;;;;;;;;17.59;60.01;101240.47;7403307;19;1995;-42
2023/01/06 12:32:48;;;;;;;;;;;;;;;17.61;60.11;101249.25;7402208;19;1897;-42
2023/01/06 12:35:22;;;;;;;;;;;;;;;17.58;60.08;101246.78;7404494;19;1778;-42
2023/01/06 12:37:54;;;;;;;;;;;;;;;17.56;60.26;101246.03;7403136;19;1739;-42
2023/01/06 12:40:25;;;;;;;;;;;;;;;17.54;60.42;101237.28;7403516;19;1939;-42
2023/01/06 12:42:57;;;;;;;;;;;;;;;17.54;60.51;101242.63;7404515;19;1905;-42
2023/01/06 12:45:30;;;;;;;;;;;;;;;17.57;60.86;101253.13;7404240;19;1637;-42
2023/01/06 12:48:00;;;;;;;;;;;;;;;17.56;61.10;101246.03;7403649;19;1899;-42
2023/01/06 12:50:36;;;;;;;;;;;;;;;17.52;61.03;101258.78;7403229;19;1933;-42
2023/01/06 12:53:08;;;;;;;;;;;;;;;17.53;60.93;101268.53;7402370;19;1851;-42
2023/01/06 12:55:41;;;;;;;;;;;;;;;17.52;61.35;101273.97;7404309;19;1958;-42
2023/01/06 12:58:11;;;;;;;;;;;;;;;17.50;60.82;101266.91;7404041;19;1789;-42
2023/01/06 13:00:46;;;;;;;;;;;;;;;17.50;61.07;101274.94;7402227;19;1751;-43
2023/01/06 13:03:35;;;;;;;;;;;;;;;17.52;61.18;101261.47;7402840;19;2074;-42
2023/01/06 13:06:16;;;;;;;;;;;;;;;17.47;60.76;101277.84;7403097;19;2183;-42
2023/01/06 13:08:53;;;;;;;;;;;;;;;17.52;60.99;101265.97;7402494;19;1852;-42
2023/01/06 13:11:25;;;;;;;;;;;;;;;17.54;61.19;101270.22;7404908;19;1778;-42